createdAt,value
2022-08-30T00:02:10.990Z,3.50
2022-08-30T00:04:38.194Z,3.60
2022-08-30T00:07:05.385Z,4.05
2022-08-30T00:09:32.652Z,3.75
2022-08-30T00:12:01.350Z,3.78
2022-08-30T00:14:28.333Z,4.00
2022-08-30T00:16:55.242Z,3.65
2022-08-30T00:19:22.348Z,3.85
2022-08-30T00:21:49.274Z,3.90
2022-08-30T00:24:16.183Z,3.55
2022-08-30T00:26:43.234Z,3.88
2022-08-30T00:29:10.216Z,4.45
2022-08-30T00:31:37.133Z,4.30
2022-08-30T00:34:04.305Z,3.90
2022-08-30T00:36:31.169Z,4.30
2022-08-30T00:38:58.332Z,4.15
2022-08-30T00:41:25.383Z,3.78
2022-08-30T00:43:52.403Z,3.88
2022-08-30T00:46:19.345Z,4.13
2022-08-30T00:48:49.175Z,3.72
2022-08-30T00:51:17.274Z,3.67
2022-08-30T00:53:48.022Z,4.30
2022-08-30T00:56:15.717Z,3.80
2022-08-30T00:58:45.598Z,3.95
2022-08-30T01:01:12.597Z,3.90
2022-08-30T01:03:40.346Z,3.72
2022-08-30T01:06:07.769Z,3.97
2022-08-30T01:08:35.351Z,4.13
2022-08-30T01:11:03.886Z,4.32
2022-08-30T01:13:31.628Z,4.60
2022-08-30T01:16:00.102Z,3.78
2022-08-30T01:18:28.088Z,4.25
2022-08-30T01:21:22.682Z,4.40
2022-08-30T01:23:51.549Z,4.20
2022-08-30T01:26:21.962Z,4.18
2022-08-30T01:28:52.694Z,4.40
2022-08-30T01:31:19.975Z,3.92
2022-08-30T01:33:46.812Z,4.43
2022-08-30T01:36:14.984Z,4.32
2022-08-30T01:38:51.570Z,4.28
2022-08-30T01:41:18.344Z,4.40
2022-08-30T01:43:45.906Z,4.65
2022-08-30T01:46:14.711Z,4.03
2022-08-30T01:48:42.449Z,4.45
2022-08-30T01:51:17.653Z,4.65
2022-08-30T01:53:45.377Z,4.75
2022-08-30T01:56:13.019Z,4.63
2022-08-30T01:58:40.529Z,4.82
2022-08-30T02:01:12.636Z,4.75
2022-08-30T02:03:41.818Z,5.57
2022-08-30T02:06:12.519Z,4.47
2022-08-30T02:08:42.809Z,5.30
2022-08-30T02:11:11.103Z,4.78
2022-08-30T02:13:38.835Z,4.97
2022-08-30T02:16:11.811Z,5.40
2022-08-30T02:18:39.881Z,5.15
2022-08-30T02:21:07.820Z,5.30
2022-08-30T02:23:35.117Z,5.32
2022-08-30T02:26:02.360Z,5.90
2022-08-30T02:28:29.371Z,5.30
2022-08-30T02:30:58.055Z,5.32
2022-08-30T02:33:25.338Z,5.68
2022-08-30T02:35:52.297Z,6.25
2022-08-30T02:38:19.947Z,5.88
2022-08-30T02:40:47.533Z,4.88
2022-08-30T02:43:14.790Z,5.18
2022-08-30T02:45:41.949Z,5.78
2022-08-30T02:48:09.578Z,5.82
2022-08-30T02:50:46.881Z,5.38
2022-08-30T02:53:16.092Z,5.53
2022-08-30T02:55:43.458Z,4.68
2022-08-30T02:58:11.092Z,5.03
2022-08-30T03:00:39.376Z,4.55
2022-08-30T03:03:07.498Z,5.18
2022-08-30T03:05:35.231Z,5.43
2022-08-30T03:08:05.128Z,4.82
2022-08-30T03:10:32.006Z,5.00
2022-08-30T03:12:59.215Z,4.95
2022-08-30T03:15:27.094Z,5.18
2022-08-30T03:17:54.945Z,4.65
2022-08-30T03:20:22.498Z,5.40
2022-08-30T03:22:49.793Z,4.95
2022-08-30T03:25:17.000Z,5.20
2022-08-30T03:27:44.111Z,5.30
2022-08-30T03:30:12.649Z,5.57
2022-08-30T03:32:40.381Z,5.35
2022-08-30T03:35:08.261Z,5.05
2022-08-30T03:37:36.101Z,5.20
2022-08-30T03:40:05.210Z,5.57
2022-08-30T03:42:33.657Z,5.00
2022-08-30T03:45:02.314Z,5.43
2022-08-30T03:47:29.803Z,5.43
2022-08-30T03:49:57.177Z,5.75
2022-08-30T03:52:24.468Z,5.60
2022-08-30T03:54:51.641Z,5.35
2022-08-30T03:57:20.189Z,5.43
2022-08-30T03:59:51.883Z,5.88
2022-08-30T04:02:19.102Z,5.43
2022-08-30T04:04:46.401Z,5.82
2022-08-30T04:07:13.638Z,5.75
2022-08-30T04:09:41.908Z,6.10
2022-08-30T04:12:09.350Z,5.93
2022-08-30T04:14:36.436Z,6.43
2022-08-30T04:17:03.590Z,5.63
2022-08-30T04:19:30.597Z,6.40
2022-08-30T04:21:57.739Z,5.30
2022-08-30T04:24:25.430Z,5.93
2022-08-30T04:26:52.319Z,5.38
2022-08-30T04:29:19.514Z,5.70
2022-08-30T04:31:46.732Z,6.35
2022-08-30T04:34:14.286Z,5.97
2022-08-30T04:36:41.357Z,5.63
2022-08-30T04:39:08.333Z,5.80
2022-08-30T04:41:37.161Z,6.20
2022-08-30T04:44:04.247Z,6.22
2022-08-30T04:46:31.272Z,5.82
2022-08-30T04:48:58.289Z,6.05
2022-08-30T04:51:25.405Z,6.22
2022-08-30T04:53:52.314Z,6.53
2022-08-30T04:56:22.454Z,6.88
2022-08-30T04:58:51.855Z,6.47
2022-08-30T05:01:30.135Z,6.07
2022-08-30T05:03:58.109Z,6.18
2022-08-30T05:06:27.510Z,6.10
2022-08-30T05:08:55.060Z,6.43
2022-08-30T05:11:22.307Z,6.45
2022-08-30T05:13:49.886Z,6.93
2022-08-30T05:16:19.459Z,7.00
2022-08-30T05:18:48.457Z,6.60
2022-08-30T05:21:18.747Z,7.82
2022-08-30T05:23:46.172Z,6.63
2022-08-30T05:26:22.884Z,7.38
2022-08-30T05:28:52.189Z,8.10
2022-08-30T05:31:28.253Z,7.15
2022-08-30T05:33:55.941Z,8.05
2022-08-30T05:36:25.458Z,7.68
2022-08-30T05:38:54.036Z,7.50
2022-08-30T05:41:22.894Z,8.15
2022-08-30T05:43:55.430Z,7.60
2022-08-30T05:46:22.839Z,8.40
2022-08-30T05:48:50.746Z,8.18
2022-08-30T05:51:21.366Z,8.07
2022-08-30T05:53:49.763Z,8.77
2022-08-30T05:56:19.504Z,7.88
2022-08-30T05:58:47.263Z,7.82
2022-08-30T06:01:31.947Z,7.65
2022-08-30T06:04:04.118Z,7.60
2022-08-30T06:06:34.438Z,7.75
2022-08-30T06:09:05.033Z,7.80
2022-08-30T06:11:32.285Z,7.50
2022-08-30T06:13:59.250Z,7.65
2022-08-30T06:16:27.725Z,7.20
2022-08-30T06:18:56.741Z,7.20
2022-08-30T06:21:29.556Z,7.35
2022-08-30T06:23:57.953Z,7.38
2022-08-30T06:26:25.994Z,8.23
2022-08-30T06:28:52.927Z,7.50
2022-08-30T06:31:21.713Z,6.65
2022-08-30T06:33:49.540Z,6.53
2022-08-30T06:36:20.641Z,6.85
2022-08-30T06:38:50.671Z,6.03
2022-08-30T06:41:19.511Z,6.82
2022-08-30T06:43:49.051Z,6.35
2022-08-30T06:46:22.248Z,5.60
2022-08-30T06:48:49.255Z,6.03
2022-08-30T06:51:23.743Z,6.35
2022-08-30T06:53:51.806Z,5.85
2022-08-30T06:56:19.561Z,6.25
2022-08-30T06:58:47.122Z,6.00
2022-08-30T07:01:24.290Z,6.32
2022-08-30T07:03:51.436Z,6.38
2022-08-30T07:06:19.496Z,6.10
2022-08-30T07:08:47.206Z,5.70
2022-08-30T07:11:14.985Z,5.68
2022-08-30T07:13:42.169Z,4.78
2022-08-30T07:16:11.030Z,5.47
2022-08-30T07:18:56.055Z,4.95
2022-08-30T07:21:29.131Z,5.47
2022-08-30T07:23:58.090Z,5.43
2022-08-30T07:26:32.539Z,4.97
2022-08-30T07:28:59.856Z,4.80
2022-08-30T07:31:26.929Z,4.88
2022-08-30T07:33:54.475Z,5.00
2022-08-30T07:36:22.166Z,4.90
2022-08-30T07:38:50.608Z,5.32
2022-08-30T07:41:23.580Z,4.70
2022-08-30T07:43:51.810Z,4.40
2022-08-30T07:46:19.760Z,4.30
2022-08-30T07:48:47.022Z,4.32
2022-08-30T07:51:20.210Z,4.40
2022-08-30T07:53:47.389Z,4.93
2022-08-30T07:56:14.452Z,3.78
2022-08-30T07:58:41.847Z,4.30
2022-08-30T08:01:10.460Z,3.65
2022-08-30T08:03:39.932Z,3.80
2022-08-30T08:06:08.922Z,3.75
2022-08-30T08:08:36.642Z,3.85
2022-08-30T08:11:27.494Z,3.55
2022-08-30T08:13:56.737Z,3.85
2022-08-30T08:16:25.547Z,3.40
2022-08-30T08:18:53.447Z,2.83
2022-08-30T08:21:21.970Z,3.15
2022-08-30T08:23:49.182Z,2.85
2022-08-30T08:26:16.114Z,2.97
2022-08-30T08:28:45.127Z,2.88
2022-08-30T08:31:21.511Z,2.80
2022-08-30T08:33:51.362Z,3.15
2022-08-30T08:36:18.621Z,2.60
2022-08-30T08:38:45.639Z,3.00
2022-08-30T08:41:18.707Z,2.63
2022-08-30T08:43:45.624Z,2.67
2022-08-30T08:46:53.586Z,2.47
2022-08-30T08:49:21.366Z,2.30
2022-08-30T08:52:07.360Z,2.83
2022-08-30T08:54:42.498Z,2.10
2022-08-30T08:57:13.817Z,2.08
2022-08-30T08:59:45.050Z,2.20
2022-08-30T09:02:25.566Z,2.42
2022-08-30T09:05:02.069Z,1.90
2022-08-30T09:07:38.290Z,1.95
2022-08-30T09:10:06.508Z,2.10
2022-08-30T09:12:33.596Z,2.20
2022-08-30T09:15:24.601Z,2.33
2022-08-30T09:17:58.928Z,2.17
2022-08-30T09:20:30.682Z,2.10
2022-08-30T09:22:58.755Z,2.10
2022-08-30T09:25:29.341Z,1.90
2022-08-30T09:28:10.820Z,2.20
2022-08-30T09:30:38.645Z,1.92
2022-08-30T09:33:10.398Z,2.47
2022-08-30T09:35:48.832Z,1.60
2022-08-30T09:38:21.256Z,2.13
2022-08-30T09:40:55.700Z,2.05
2022-08-30T09:43:31.186Z,2.17
2022-08-30T09:46:00.952Z,2.20
2022-08-30T09:48:38.280Z,2.20
2022-08-30T09:51:11.543Z,1.45
2022-08-30T09:54:18.374Z,1.50
2022-08-30T09:57:11.625Z,1.77
2022-08-30T10:00:13.450Z,1.90
2022-08-30T10:02:43.635Z,2.00
2022-08-30T10:05:46.228Z,2.42
2022-08-30T10:08:28.264Z,2.50
2022-08-30T10:11:01.388Z,2.47
2022-08-30T10:13:57.451Z,2.20
2022-08-30T10:16:40.541Z,2.00
2022-08-30T10:19:22.042Z,2.08
2022-08-30T10:21:55.883Z,2.90
2022-08-30T10:24:32.792Z,2.50
2022-08-30T10:27:06.657Z,2.38
2022-08-30T10:29:54.019Z,2.60
2022-08-30T10:32:30.143Z,2.60
2022-08-30T10:35:10.809Z,2.83
2022-08-30T10:37:46.701Z,2.55
2022-08-30T10:40:37.796Z,2.25
2022-08-30T10:43:14.149Z,2.35
2022-08-30T10:45:45.261Z,2.95
2022-08-30T10:48:26.702Z,2.80
2022-08-30T10:50:56.902Z,2.78
2022-08-30T10:53:33.424Z,2.65
2022-08-30T10:56:07.447Z,3.40
2022-08-30T10:58:40.546Z,2.90
2022-08-30T11:01:35.087Z,2.25
2022-08-30T11:04:08.027Z,2.30
2022-08-30T11:06:53.841Z,1.90
2022-08-30T11:09:36.302Z,2.05
2022-08-30T11:12:21.462Z,2.00
2022-08-30T11:14:49.061Z,2.58
2022-08-30T11:17:29.501Z,2.30
2022-08-30T11:19:59.274Z,2.17
2022-08-30T11:22:39.050Z,1.60
2022-08-30T11:25:14.122Z,2.10
2022-08-30T11:27:52.961Z,1.90
2022-08-30T11:30:26.707Z,2.67
2022-08-30T11:33:02.368Z,2.63
2022-08-30T11:35:48.200Z,2.70
2022-08-30T11:38:28.364Z,2.70
2022-08-30T11:40:56.036Z,2.03
2022-08-30T11:43:36.748Z,2.67
2022-08-30T11:46:14.608Z,2.25
2022-08-30T11:48:55.959Z,2.00
2022-08-30T11:51:43.700Z,2.33
2022-08-30T11:54:52.749Z,2.30
2022-08-30T11:57:42.063Z,2.47
2022-08-30T12:00:12.695Z,2.10
2022-08-30T12:02:51.115Z,2.60
2022-08-30T12:05:38.261Z,2.60
2022-08-30T12:08:08.904Z,2.40
2022-08-30T12:10:48.687Z,2.38
2022-08-30T12:13:34.129Z,3.30
2022-08-30T12:16:07.892Z,2.70
2022-08-30T12:18:39.545Z,3.08
2022-08-30T12:21:28.195Z,2.38
2022-08-30T12:24:09.248Z,2.42
2022-08-30T12:26:39.325Z,2.30
2022-08-30T12:29:24.804Z,2.42
2022-08-30T12:31:58.586Z,2.70
2022-08-30T12:34:34.754Z,2.55
2022-08-30T12:37:20.351Z,2.42
2022-08-30T12:39:53.768Z,2.20
2022-08-30T12:42:27.392Z,2.28
2022-08-30T12:44:57.949Z,2.13
2022-08-30T12:47:26.793Z,2.35
2022-08-30T12:49:54.862Z,2.10
2022-08-30T12:52:29.455Z,1.70
2022-08-30T12:55:17.127Z,1.73
2022-08-30T12:58:12.454Z,1.70
2022-08-30T13:00:41.771Z,2.20
2022-08-30T13:03:33.862Z,1.65
2022-08-30T13:06:02.843Z,1.60
2022-08-30T13:08:42.395Z,1.40
2022-08-30T13:11:12.014Z,1.58
2022-08-30T13:13:46.193Z,1.45
2022-08-30T13:16:22.724Z,1.30
2022-08-30T13:18:55.444Z,13.07
2022-08-30T13:21:26.636Z,1.90
2022-08-30T13:23:59.727Z,1.42
2022-08-30T13:26:28.770Z,1.25
2022-08-30T13:29:00.216Z,1.40
2022-08-30T13:31:28.899Z,1.55
2022-08-30T13:33:58.187Z,1.73
2022-08-30T13:36:29.338Z,1.60
2022-08-30T13:38:57.653Z,1.55
2022-08-30T13:44:28.707Z,1.42
2022-08-30T13:47:32.127Z,1.35
2022-08-30T13:49:46.909Z,1.55
2022-08-30T13:52:22.573Z,1.40
2022-08-30T13:54:55.821Z,1.20
2022-08-30T14:00:17.896Z,1.10
2022-08-30T14:02:53.831Z,1.10
2022-08-30T14:05:50.228Z,1.13
2022-08-30T14:11:18.460Z,1.20
2022-08-30T14:16:35.187Z,1.30
2022-08-30T14:19:03.410Z,1.40
2022-08-30T14:21:30.446Z,1.00
2022-08-30T14:23:58.190Z,1.00
2022-08-30T14:26:37.655Z,1.08
2022-08-30T14:29:09.123Z,0.80
2022-08-30T14:31:38.089Z,1.10
2022-08-30T14:34:06.315Z,0.73
2022-08-30T14:36:34.700Z,0.70
2022-08-30T14:39:08.347Z,0.70
2022-08-30T14:41:43.672Z,1.00
2022-08-30T14:44:12.597Z,1.00
2022-08-30T14:46:40.477Z,0.70
2022-08-30T14:49:07.645Z,0.70
2022-08-30T14:51:37.333Z,0.88
2022-08-30T14:54:04.240Z,0.88
2022-08-30T14:56:31.500Z,0.90
2022-08-30T14:59:00.703Z,0.80
2022-08-30T15:01:28.318Z,0.90
2022-08-30T15:03:56.019Z,0.70
2022-08-30T15:06:23.875Z,0.70
2022-08-30T15:08:54.325Z,1.00
2022-08-30T15:11:22.986Z,1.00
2022-08-30T15:13:52.828Z,0.70
2022-08-30T15:16:21.409Z,0.70
2022-08-30T15:18:48.780Z,0.70
2022-08-30T15:21:26.024Z,0.60
2022-08-30T15:23:53.556Z,0.70
2022-08-30T15:26:21.467Z,0.60
2022-08-30T15:28:48.648Z,0.73
2022-08-30T15:31:15.964Z,0.90
2022-08-30T15:33:44.232Z,0.90
2022-08-30T15:36:11.575Z,0.70
2022-08-30T15:38:39.720Z,0.93
2022-08-30T15:41:10.748Z,0.70
2022-08-30T15:43:38.132Z,0.60
2022-08-30T15:46:23.682Z,0.70
2022-08-30T15:49:00.837Z,0.80
2022-08-30T15:51:28.501Z,1.00
2022-08-30T15:53:58.269Z,0.80
2022-08-30T15:56:25.278Z,0.95
2022-08-30T15:58:53.132Z,0.90
2022-08-30T16:01:22.816Z,0.70
2022-08-30T16:03:57.770Z,0.80
2022-08-30T16:06:30.325Z,0.52
2022-08-30T16:08:58.615Z,0.70
2022-08-30T16:11:26.144Z,0.70
2022-08-30T16:13:54.704Z,0.68
2022-08-30T16:16:22.798Z,0.63
2022-08-30T16:18:54.352Z,0.60
2022-08-30T16:21:30.915Z,0.50
2022-08-30T16:24:00.511Z,0.50
2022-08-30T16:26:28.555Z,0.43
2022-08-30T16:28:55.960Z,0.70
2022-08-30T16:31:24.527Z,0.70
2022-08-30T16:33:53.856Z,0.50
2022-08-30T16:36:22.740Z,0.70
2022-08-30T16:38:53.539Z,0.75
2022-08-30T16:41:22.407Z,0.60
2022-08-30T16:43:53.309Z,0.60
2022-08-30T16:46:27.306Z,0.70
2022-08-30T16:49:01.547Z,0.60
2022-08-30T16:51:30.376Z,0.65
2022-08-30T16:53:59.621Z,0.70
2022-08-30T16:56:29.535Z,0.60
2022-08-30T16:59:02.212Z,0.70
2022-08-30T17:01:32.046Z,0.70
2022-08-30T17:03:59.785Z,0.45
2022-08-30T17:06:27.390Z,0.70
2022-08-30T17:08:56.366Z,0.90
2022-08-30T17:11:24.330Z,0.80
2022-08-30T17:13:51.971Z,0.80
2022-08-30T17:16:22.586Z,0.90
2022-08-30T17:18:59.903Z,0.98
2022-08-30T17:21:28.908Z,1.10
2022-08-30T17:24:01.523Z,0.73
2022-08-30T17:26:34.526Z,0.60
2022-08-30T17:29:01.785Z,0.70
2022-08-30T17:31:31.160Z,0.80
2022-08-30T17:34:04.035Z,0.93
2022-08-30T17:36:36.674Z,0.63
2022-08-30T17:39:10.849Z,0.77
2022-08-30T17:41:45.255Z,0.60
2022-08-30T17:44:17.058Z,0.80
2022-08-30T17:46:45.595Z,0.70
2022-08-30T17:49:13.125Z,0.70
2022-08-30T17:51:42.514Z,0.80
2022-08-30T17:54:12.744Z,0.80
2022-08-30T17:56:41.031Z,0.70
2022-08-30T17:59:10.159Z,0.80
2022-08-30T18:01:38.083Z,0.80
2022-08-30T18:04:05.892Z,0.68
2022-08-30T18:06:33.883Z,0.77
2022-08-30T18:09:02.183Z,0.82
2022-08-30T18:11:29.058Z,0.73
2022-08-30T18:13:55.912Z,0.80
2022-08-30T18:16:26.457Z,0.90
2022-08-30T18:18:57.218Z,0.63
2022-08-30T18:21:25.275Z,0.80
2022-08-30T18:23:52.628Z,0.70
2022-08-30T18:26:19.574Z,1.00
2022-08-30T18:28:51.470Z,0.98
2022-08-30T18:31:18.421Z,1.00
2022-08-30T18:33:45.479Z,0.80
2022-08-30T18:36:12.840Z,0.70
2022-08-30T18:38:42.450Z,0.80
2022-08-30T18:41:13.954Z,0.98
2022-08-30T18:43:42.340Z,1.10
2022-08-30T18:46:13.525Z,1.02
2022-08-30T18:48:41.753Z,0.90
2022-08-30T18:51:14.800Z,0.80
2022-08-30T18:53:43.011Z,0.80
2022-08-30T18:56:12.054Z,1.10
2022-08-30T18:58:44.485Z,0.90
2022-08-30T19:01:12.776Z,0.90
2022-08-30T19:03:40.745Z,0.90
2022-08-30T19:06:11.395Z,1.23
2022-08-30T19:08:40.210Z,1.00
2022-08-30T19:11:08.912Z,0.65
2022-08-30T19:13:36.973Z,0.90
2022-08-30T19:16:06.182Z,0.88
2022-08-30T19:18:34.222Z,0.95
2022-08-30T19:21:04.381Z,1.23
2022-08-30T19:23:34.439Z,0.80
2022-08-30T19:26:01.450Z,0.73
2022-08-30T19:28:29.112Z,0.98
2022-08-30T19:30:56.668Z,0.90
2022-08-30T19:33:23.693Z,0.75
2022-08-30T19:35:51.619Z,1.25
2022-08-30T19:38:18.848Z,0.93
2022-08-30T19:40:50.081Z,0.90
2022-08-30T19:43:21.083Z,1.15
2022-08-30T19:45:53.624Z,0.70
2022-08-30T19:48:22.350Z,1.30
2022-08-30T19:50:49.832Z,1.00
2022-08-30T19:53:17.134Z,0.80
2022-08-30T19:55:44.521Z,0.80
2022-08-30T19:58:11.688Z,0.82
2022-08-30T20:00:39.250Z,0.88
2022-08-30T20:03:12.390Z,0.93
2022-08-30T20:05:42.703Z,0.77
2022-08-30T20:08:09.812Z,0.63
2022-08-30T20:10:37.379Z,0.60
2022-08-30T20:13:05.470Z,0.70
2022-08-30T20:15:32.464Z,0.60
2022-08-30T20:18:05.824Z,0.70
2022-08-30T20:20:40.113Z,0.80
2022-08-30T20:23:07.172Z,0.80
2022-08-30T20:25:34.670Z,1.08
2022-08-30T20:28:02.161Z,1.00
2022-08-30T20:30:29.265Z,1.00
2022-08-30T20:32:56.276Z,0.75
2022-08-30T20:35:23.809Z,1.00
2022-08-30T20:37:51.046Z,1.02
2022-08-30T20:40:18.257Z,1.02
2022-08-30T20:42:46.409Z,1.38
2022-08-30T20:48:17.509Z,3.45
2022-08-30T20:50:45.085Z,2.30
2022-08-30T20:53:12.472Z,3.78
2022-08-30T20:55:45.005Z,1.83
2022-08-30T20:58:12.846Z,2.70
2022-08-30T21:00:40.081Z,1.83
2022-08-30T21:03:26.562Z,2.10
2022-08-30T21:05:56.063Z,1.20
2022-08-30T21:08:23.070Z,0.93
2022-08-30T21:10:55.444Z,1.10
2022-08-30T21:13:23.121Z,1.10
2022-08-30T21:15:54.764Z,1.00
2022-08-30T21:18:22.158Z,1.02
2022-08-30T21:20:49.358Z,1.00
2022-08-30T21:23:16.592Z,1.10
2022-08-30T21:25:43.901Z,1.02
2022-08-30T21:28:11.117Z,1.10
2022-08-30T21:30:38.160Z,0.95
2022-08-30T21:33:06.156Z,1.15
2022-08-30T21:35:52.592Z,1.20
2022-08-30T21:38:20.118Z,1.00
2022-08-30T21:40:48.602Z,1.10
2022-08-30T21:43:16.038Z,0.90
2022-08-30T21:45:44.259Z,1.10
2022-08-30T21:48:12.603Z,0.95
2022-08-30T21:50:41.340Z,1.10
2022-08-30T21:53:08.284Z,1.00
2022-08-30T21:55:35.503Z,1.17
2022-08-30T21:58:03.725Z,1.05
2022-08-30T22:00:31.818Z,0.90
2022-08-30T22:02:58.988Z,0.90
2022-08-30T22:05:25.954Z,0.93
2022-08-30T22:07:52.821Z,0.82
2022-08-30T22:10:21.126Z,1.17
2022-08-30T22:12:48.240Z,0.65
2022-08-30T22:15:15.224Z,1.10
2022-08-30T22:17:44.028Z,0.93
2022-08-30T22:20:12.022Z,1.10
2022-08-30T22:22:45.713Z,0.82
2022-08-30T22:25:12.607Z,1.30
2022-08-30T22:27:39.610Z,0.80
2022-08-30T22:30:07.302Z,0.90
2022-08-30T22:32:34.284Z,1.10
2022-08-30T22:35:01.212Z,1.20
2022-08-30T22:37:29.186Z,1.08
2022-08-30T22:39:56.011Z,1.05
2022-08-30T22:42:22.884Z,1.20
2022-08-30T22:44:50.530Z,0.90
2022-08-30T22:47:17.467Z,1.10
2022-08-30T22:49:44.351Z,0.80
2022-08-30T22:52:13.224Z,0.95
2022-08-30T22:54:40.378Z,1.00
2022-08-30T22:57:07.259Z,1.08
2022-08-30T22:59:34.484Z,1.20
2022-08-30T23:02:01.414Z,0.88
2022-08-30T23:04:28.390Z,0.70
2022-08-30T23:06:58.028Z,1.20
2022-08-30T23:09:24.943Z,1.13
2022-08-30T23:11:51.805Z,1.10
2022-08-30T23:14:18.852Z,1.10
2022-08-30T23:16:47.036Z,1.10
2022-08-30T23:19:14.534Z,1.42
2022-08-30T23:21:41.728Z,1.17
2022-08-30T23:24:27.355Z,0.95
2022-08-30T23:27:13.343Z,1.20
2022-08-30T23:30:00.032Z,1.13
2022-08-30T23:32:45.385Z,1.20
2022-08-30T23:35:31.420Z,1.33
2022-08-30T23:38:18.597Z,1.30
2022-08-30T23:41:04.236Z,1.30
2022-08-30T23:43:49.612Z,1.17
2022-08-30T23:46:35.466Z,1.25
2022-08-30T23:49:21.339Z,1.00
2022-08-30T23:52:06.653Z,1.27
2022-08-30T23:54:57.350Z,1.30
2022-08-30T23:57:44.203Z,1.30
